HECA Airport Information

Runway Information
Runway 05C Length 13120 ft width 197 ft
Elevation 382 ft Threshold 0 ft Heading 45
Runway 23C Length 13120 ft Width 197 ft
Elevation 0 ft Threshold 0 ft Heading 225
Runway 05L Length 10830 ft width 197 ft
Elevation 190 ft Threshold 0 ft Heading 49
Runway 23R Length 10830 ft Width 197 ft
Elevation 199 ft Threshold 0 ft Heading 229
Runway 05R Length 13124 ft width 197 ft
Elevation 382 ft Threshold 0 ft Heading 49
Runway 23L Length 13124 ft Width 197 ft
Elevation 375 ft Threshold 0 ft Heading 229
Airport Frequencies
Type APP Name APP Frequency 119.05 MHZ
Type ATIS Name ATIS Frequency 122.6 MHZ
Type GND Name GND Frequency 121.9 MHZ
Type MISC Name VOLMET Frequency 126.2 MHZ
Type PFLT Name PREFLIGHT Frequency 120.1 MHZ
Type rdo Name cairo radi Frequency 11.3 MHZ
Type TWR Name TWR Frequency 118.1 MHZ
Type Volmet Name Frequency 124.6 MHZ
Airport Navaids
Type NDB Name Cairo Frequency 310 KHZ
Type VOR-DME Name Cairo Frequency 112500 KHZ
Type VOR-DME Name Cairo Frequency 115200 KHZ
Type NDB Name Cairo Frequency 317 KHZ
Airport Weather Information & NOTAM
ADDS - METARS form results

(1122 UTC 24 July 2021)
Data provider http://aviationweather.gov/metar/data/
 
METAR text: HECA 241100Z 32010KT 9999 SCT025 32/17 Q1006 NOSIG
Conditions at: HECA (CAIRO INTL AIRPO, EG) observed 1100 UTC 24 July 2021
Temperature: 32.0°C (90°F)
Dewpoint: 17.0°C (63°F) [RH = 41%]
Pressure (altimeter): 29.70 inches Hg (1006.0 mb)
Winds: from the NW (320 degrees) at 12 MPH (10 knots; 5.1 m/s)
Visibility: 6 or more miles (10+ km)
Ceiling: at least 12,000 feet AGL
Clouds: scattered clouds at 2500 feet AGL
Weather: no significant weather observed at this time

METAR text: HECA 241030Z 30010KT 9999 SCT025 32/17 Q1006 NOSIG
Conditions at: HECA (CAIRO INTL AIRPO, EG) observed 1030 UTC 24 July 2021
Temperature: 32.0°C (90°F)
Dewpoint: 17.0°C (63°F) [RH = 41%]
Pressure (altimeter): 29.70 inches Hg (1006.0 mb)
Winds: from the WNW (300 degrees) at 12 MPH (10 knots; 5.1 m/s)
Visibility: 6 or more miles (10+ km)
Ceiling: at least 12,000 feet AGL
Clouds: scattered clouds at 2500 feet AGL
Weather: no significant weather observed at this time

Forecast for: HECA (CAIRO INTL AIRPO, EG)
Text: TAF HECA 241100Z 2412/2518 30009KT 9999 FEW025
Forecast period: 1200 UTC 24 July 2021 to 1800 UTC 25 July 2021
Forecast type: FROM: standard forecast or significant change
Winds: from the WNW (300 degrees) at 10 MPH (9 knots; 4.6 m/s)
Visibility: 6 or more miles (10+ km)
Ceiling: at least 12,000 feet AGL
Clouds: few clouds at 2500 feet AGL
Weather: no significant weather forecast for this period
Text: TEMPO 2412/2415 28010G20KT 4000 SA
Forecast period: 1200 to 1500 UTC 24 July 2021
Forecast type: TEMPORARY: The following changes expected for less than half the time period
Winds: from the W (280 degrees) at 12 MPH (10 knots; 5.1 m/s)
gusting to 23 MPH (20 knots; 10.3 m/s)
Visibility: 2.49 miles (4.01 km)
Ceiling: unknown
Clouds: missing
Weather: SA  (sand)